Time;durP1;ratioP1;P1;durP2;ratioP2;P2;SDS_P1;SDS_P2;PMS_P1;PMS_P2;Temp;Humidity;BMP_temperature;BMP_pressure;BME280_temperature;BME280_humidity;BME280_pressure;Samples;Min_cycle;Max_cycle;Signal;HPM_P1;HPM_P2
2022/07/22 00:02:15;;;;;;;6.70;3.73;;;18.40;99.90;;;;;;5074398;28;20193;-76
2022/07/22 00:04:41;;;;;;;7.03;4.00;;;18.40;99.90;;;;;;5073978;28;20177;-76
2022/07/22 00:07:06;;;;;;;3.83;2.97;;;18.40;99.90;;;;;;5074458;28;20393;-74
2022/07/22 00:09:33;;;;;;;4.10;3.23;;;18.40;99.90;;;;;;5074044;28;20182;-75
2022/07/22 00:11:59;;;;;;;3.03;2.60;;;18.40;99.90;;;;;;5074489;28;20159;-74
2022/07/22 00:14:24;;;;;;;5.43;3.33;;;18.40;99.90;;;;;;5074042;28;20901;-74
2022/07/22 00:16:50;;;;;;;14.73;3.17;;;18.40;99.90;;;;;;5074133;28;20538;-75
2022/07/22 00:19:16;;;;;;;4.20;2.43;;;18.40;99.90;;;;;;5074043;28;20186;-75
2022/07/22 00:21:41;;;;;;;4.30;2.80;;;18.40;99.90;;;;;;5074144;28;20290;-75
2022/07/22 00:24:07;;;;;;;3.40;3.07;;;18.40;99.90;;;;;;5073953;28;20163;-74
2022/07/22 00:26:33;;;;;;;4.50;3.10;;;18.40;99.90;;;;;;5073712;28;20712;-74
2022/07/22 00:28:59;;;;;;;4.43;3.03;;;18.40;99.90;;;;;;5073917;28;20208;-74
2022/07/22 00:31:24;;;;;;;4.80;3.13;;;18.30;99.90;;;;;;5072625;28;20408;-74
2022/07/22 00:33:50;;;;;;;3.33;2.63;;;18.30;99.90;;;;;;5073894;28;20173;-74
2022/07/22 00:36:15;;;;;;;6.40;2.40;;;18.30;99.90;;;;;;5073563;28;20193;-74
2022/07/22 00:38:41;;;;;;;5.73;2.60;;;18.30;99.90;;;;;;5073786;28;20209;-75
2022/07/22 00:41:06;;;;;;;3.70;2.87;;;18.30;99.90;;;;;;5073712;28;20198;-75
2022/07/22 00:44:08;;;;;;;7.07;3.20;;;18.30;99.90;;;;;;5073745;28;20162;-74
2022/07/22 00:46:34;;;;;;;2.63;2.40;;;18.30;99.90;;;;;;5030710;28;20203;-74
2022/07/22 00:49:00;;;;;;;4.63;3.43;;;18.30;99.90;;;;;;5059369;28;20412;-74
2022/07/22 00:51:28;;;;;;;4.63;3.43;;;18.20;99.90;;;;;;5073061;28;20474;-74
2022/07/22 00:53:54;;;;;;;6.37;3.37;;;18.20;99.90;;;;;;5073529;28;20396;-74
2022/07/22 00:56:20;;;;;;;7.40;3.67;;;18.20;99.90;;;;;;5073199;28;20397;-74
2022/07/22 00:58:48;;;;;;;3.10;2.80;;;18.20;99.90;;;;;;5073710;28;20817;-74
2022/07/22 01:01:15;;;;;;;6.07;4.53;;;18.20;99.90;;;;;;5073306;28;20863;-74
2022/07/22 01:03:41;;;;;;;3.30;2.60;;;18.20;99.90;;;;;;5073341;28;20405;-74
2022/07/22 01:06:08;;;;;;;4.67;3.77;;;18.20;99.90;;;;;;5072981;28;20495;-75
2022/07/22 01:08:33;;;;;;;4.03;2.90;;;18.20;99.90;;;;;;5073092;28;20397;-74
2022/07/22 01:11:16;;;;;;;6.60;3.60;;;18.20;99.90;;;;;;5071825;28;20424;-75
2022/07/22 01:13:43;;;;;;;5.37;3.63;;;18.20;99.90;;;;;;5073175;28;20215;-74
2022/07/22 01:16:10;;;;;;;6.40;3.73;;;18.20;99.90;;;;;;5072782;28;20894;-75
2022/07/22 01:18:37;;;;;;;3.83;3.07;;;18.10;99.90;;;;;;5073063;28;20486;-76
2022/07/22 01:21:07;;;;;;;6.43;3.67;;;18.10;99.90;;;;;;5072730;28;20813;-75
2022/07/22 01:23:33;;;;;;;4.07;3.00;;;18.10;99.90;;;;;;5071522;28;20462;-75
2022/07/22 01:26:00;;;;;;;6.43;3.30;;;18.10;99.90;;;;;;5072584;28;20407;-74
2022/07/22 01:28:26;;;;;;;6.17;3.10;;;18.10;99.90;;;;;;5072761;28;20483;-75
2022/07/22 01:30:52;;;;;;;7.57;3.40;;;18.10;99.90;;;;;;5072656;28;20557;-75
2022/07/22 01:33:19;;;;;;;14.00;4.40;;;18.10;99.90;;;;;;5071506;28;20525;-74
2022/07/22 01:35:45;;;;;;;4.73;3.10;;;18.10;99.90;;;;;;5072365;28;20549;-75
2022/07/22 01:38:12;;;;;;;3.43;3.13;;;18.10;99.90;;;;;;5071330;28;20408;-76
2022/07/22 01:40:38;;;;;;;4.37;3.63;;;18.10;99.90;;;;;;5072115;28;20182;-76
2022/07/22 01:43:04;;;;;;;3.27;2.87;;;18.10;99.90;;;;;;5072603;28;20765;-76
2022/07/22 01:45:29;;;;;;;5.67;3.50;;;18.10;99.90;;;;;;5072219;28;20403;-77
2022/07/22 01:47:55;;;;;;;4.33;3.07;;;18.10;99.90;;;;;;5072596;28;20198;-76
2022/07/22 01:50:21;;;;;;;3.70;3.30;;;18.10;99.90;;;;;;5072460;28;20585;-74
2022/07/22 01:52:46;;;;;;;5.03;3.53;;;18.10;99.90;;;;;;5070961;28;20236;-74
2022/07/22 01:55:12;;;;;;;4.20;3.30;;;18.10;99.90;;;;;;5072160;28;20166;-74
2022/07/22 01:57:38;;;;;;;4.27;3.80;;;18.10;99.90;;;;;;5071044;28;20177;-74
2022/07/22 02:00:08;;;;;;;5.33;3.30;;;18.10;99.90;;;;;;5072111;28;20856;-74
2022/07/22 02:02:35;;;;;;;3.93;3.03;;;18.10;99.90;;;;;;5072141;28;20444;-74
2022/07/22 02:05:02;;;;;;;5.33;4.83;;;18.00;99.90;;;;;;5072029;28;20618;-74
2022/07/22 02:07:28;;;;;;;4.70;3.10;;;18.00;99.90;;;;;;5072036;28;20404;-74
2022/07/22 02:09:54;;;;;;;13.93;3.87;;;18.10;99.90;;;;;;5072117;28;20435;-74
2022/07/22 02:12:19;;;;;;;4.87;3.03;;;18.00;99.90;;;;;;5072119;28;20167;-74
2022/07/22 02:14:46;;;;;;;3.87;3.57;;;18.10;99.90;;;;;;5071915;28;20177;-74
2022/07/22 02:17:11;;;;;;;4.17;3.10;;;18.00;99.90;;;;;;5072148;28;20177;-74
2022/07/22 02:19:37;;;;;;;5.07;3.50;;;18.10;99.90;;;;;;5071971;28;20967;-74
2022/07/22 02:22:03;;;;;;;3.23;2.93;;;18.00;99.90;;;;;;5071911;28;20202;-74
2022/07/22 02:24:28;;;;;;;9.10;3.20;;;18.00;99.90;;;;;;5071695;28;20250;-74
2022/07/22 02:26:54;;;;;;;7.77;3.50;;;18.00;99.90;;;;;;5071921;28;20249;-74
2022/07/22 02:29:19;;;;;;;5.17;4.27;;;18.00;99.90;;;;;;5072018;28;20546;-74
2022/07/22 02:31:45;;;;;;;4.30;3.40;;;18.00;99.90;;;;;;5071862;28;20571;-74
2022/07/22 02:34:11;;;;;;;8.20;3.60;;;18.00;99.90;;;;;;5071830;28;20708;-74
2022/07/22 02:36:36;;;;;;;6.13;3.40;;;18.00;99.90;;;;;;5071754;28;20245;-74
2022/07/22 02:39:03;;;;;;;6.30;3.10;;;18.00;99.90;;;;;;5071710;28;20166;-74
2022/07/22 02:41:28;;;;;;;5.00;3.13;;;18.00;99.90;;;;;;5071951;28;20562;-74
2022/07/22 02:43:54;;;;;;;4.30;3.27;;;18.00;99.90;;;;;;5071795;28;20404;-74
2022/07/22 02:46:24;;;;;;;4.33;2.90;;;18.00;99.90;;;;;;5071672;28;20162;-74
2022/07/22 02:48:50;;;;;;;3.40;3.10;;;18.00;99.90;;;;;;5071725;28;20162;-74
2022/07/22 02:51:15;;;;;;;4.23;3.33;;;18.00;99.90;;;;;;5071709;28;20453;-74
2022/07/22 02:53:41;;;;;;;5.00;4.00;;;18.00;99.90;;;;;;5071700;28;20979;-74
2022/07/22 02:56:07;;;;;;;6.17;3.40;;;18.00;99.90;;;;;;5071536;28;20173;-74
2022/07/22 02:58:32;;;;;;;3.30;3.00;;;18.10;99.90;;;;;;5071538;28;20176;-74
2022/07/22 03:00:59;;;;;;;3.50;2.77;;;18.10;99.90;;;;;;5071689;28;20309;-75
2022/07/22 03:03:25;;;;;;;3.40;2.60;;;18.10;99.90;;;;;;5071496;28;20488;-75
2022/07/22 03:05:50;;;;;;;6.33;2.80;;;18.10;99.90;;;;;;5071396;28;20259;-75
2022/07/22 03:08:16;;;;;;;3.50;2.57;;;18.10;99.90;;;;;;5071607;28;20174;-74
2022/07/22 03:10:42;;;;;;;4.27;3.37;;;18.10;99.90;;;;;;5072634;28;20217;-74
2022/07/22 03:13:08;;;;;;;4.27;3.13;;;18.10;99.90;;;;;;5074148;28;20170;-74
2022/07/22 03:15:33;;;;;;;3.97;3.10;;;18.10;99.90;;;;;;5075175;28;20162;-74
2022/07/22 03:17:59;;;;;;;4.77;3.23;;;18.10;99.90;;;;;;5075291;28;20170;-74
2022/07/22 03:20:25;;;;;;;4.47;3.20;;;18.00;99.90;;;;;;5075336;28;20666;-74
2022/07/22 03:22:50;;;;;;;3.77;3.07;;;18.10;99.90;;;;;;5075328;28;20240;-75
2022/07/22 03:25:16;;;;;;;4.67;3.03;;;18.00;99.90;;;;;;5074660;28;20216;-74
2022/07/22 03:27:42;;;;;;;4.53;3.80;;;18.00;99.90;;;;;;5075221;28;20189;-75
2022/07/22 03:30:07;;;;;;;8.93;4.17;;;18.00;99.90;;;;;;5075103;28;20281;-74
2022/07/22 03:32:33;;;;;;;5.33;3.50;;;18.00;99.90;;;;;;5075233;28;20174;-74
2022/07/22 03:34:59;;;;;;;9.00;3.67;;;18.00;99.90;;;;;;5074886;28;20412;-74
2022/07/22 03:37:24;;;;;;;4.90;3.20;;;18.00;99.90;;;;;;5075146;28;20623;-75
2022/07/22 03:39:50;;;;;;;8.57;3.83;;;18.00;99.90;;;;;;5074812;28;20285;-75
2022/07/22 03:42:15;;;;;;;4.73;3.77;;;17.90;99.90;;;;;;5074884;28;20202;-75
2022/07/22 03:44:41;;;;;;;5.30;3.40;;;17.90;99.90;;;;;;5074625;28;20166;-75
2022/07/22 03:47:07;;;;;;;5.93;2.80;;;17.90;99.90;;;;;;5073602;28;20273;-74
2022/07/22 03:49:32;;;;;;;3.43;3.10;;;17.90;99.90;;;;;;5073444;28;20186;-74
2022/07/22 03:51:58;;;;;;;8.20;3.30;;;17.90;99.90;;;;;;5074789;28;20201;-74
2022/07/22 03:54:24;;;;;;;3.57;2.73;;;17.90;99.90;;;;;;5074462;28;20643;-75
2022/07/22 03:56:49;;;;;;;4.67;3.30;;;18.00;99.90;;;;;;5074730;28;20245;-75
2022/07/22 03:59:16;;;;;;;4.40;3.93;;;18.00;99.90;;;;;;5074651;28;20194;-74
2022/07/22 04:01:41;;;;;;;6.80;3.10;;;18.00;99.90;;;;;;5073246;28;20247;-75
2022/07/22 04:04:07;;;;;;;5.50;3.80;;;18.00;99.90;;;;;;5074760;28;20408;-74
2022/07/22 04:06:32;;;;;;;3.47;3.17;;;18.00;99.90;;;;;;5073068;28;20515;-74
2022/07/22 04:08:58;;;;;;;4.37;3.37;;;18.00;99.90;;;;;;5074505;28;20167;-74
2022/07/22 04:11:24;;;;;;;4.00;2.90;;;17.90;99.90;;;;;;5074546;28;20794;-74
2022/07/22 04:13:49;;;;;;;3.90;2.90;;;18.00;99.90;;;;;;5074794;28;20166;-74
2022/07/22 04:16:15;;;;;;;2.70;2.23;;;18.00;99.90;;;;;;5073042;28;20170;-74
2022/07/22 04:18:40;;;;;;;4.10;3.07;;;18.00;99.90;;;;;;5074579;28;20943;-74
2022/07/22 04:21:06;;;;;;;3.10;2.37;;;18.00;99.90;;;;;;5074263;28;20567;-75
2022/07/22 04:23:32;;;;;;;4.40;4.00;;;18.00;99.90;;;;;;5073276;28;20158;-74
2022/07/22 04:25:57;;;;;;;3.57;2.90;;;18.10;99.90;;;;;;5074226;28;20163;-74
2022/07/22 04:28:23;;;;;;;6.57;2.73;;;18.00;99.90;;;;;;5074342;28;20158;-74
2022/07/22 04:30:48;;;;;;;3.27;3.00;;;18.10;99.90;;;;;;5073998;28;20261;-74
2022/07/22 04:33:14;;;;;;;4.10;2.77;;;18.00;99.90;;;;;;5074193;28;20173;-74
2022/07/22 04:35:40;;;;;;;5.10;2.63;;;18.10;99.90;;;;;;5073755;28;20175;-74
2022/07/22 04:38:05;;;;;;;2.73;2.40;;;18.10;99.90;;;;;;5073910;28;20166;-74
2022/07/22 04:40:31;;;;;;;4.77;3.67;;;18.10;99.90;;;;;;5073687;28;20186;-74
2022/07/22 04:42:56;;;;;;;5.40;2.90;;;18.10;99.90;;;;;;5073700;28;20285;-75
2022/07/22 04:45:22;;;;;;;10.33;2.40;;;18.10;99.90;;;;;;5073439;28;20198;-74
2022/07/22 04:47:47;;;;;;;2.83;2.57;;;18.20;99.90;;;;;;5073643;28;20170;-74
2022/07/22 04:50:13;;;;;;;3.10;2.50;;;18.20;99.90;;;;;;5073668;28;20552;-74
2022/07/22 04:52:39;;;;;;;3.23;2.50;;;18.20;99.90;;;;;;5073486;28;20239;-74
2022/07/22 04:55:05;;;;;;;2.00;1.80;;;18.20;99.90;;;;;;5073273;28;20197;-75
2022/07/22 04:57:30;;;;;;;2.60;1.87;;;18.20;99.90;;;;;;5073564;28;20264;-74
2022/07/22 04:59:56;;;;;;;4.00;3.23;;;18.30;99.90;;;;;;5073295;28;20444;-74
2022/07/22 05:02:21;;;;;;;4.30;2.50;;;18.30;99.90;;;;;;5073309;28;20674;-74
2022/07/22 05:04:47;;;;;;;4.80;3.03;;;18.30;99.90;;;;;;5073143;28;20623;-74
2022/07/22 05:07:12;;;;;;;6.80;3.00;;;18.30;99.90;;;;;;5073223;28;20162;-74
2022/07/22 05:09:38;;;;;;;6.20;2.67;;;18.30;99.90;;;;;;5073123;28;20213;-74
2022/07/22 05:12:04;;;;;;;3.40;2.50;;;18.40;99.90;;;;;;5073082;28;20636;-74
2022/07/22 05:14:30;;;;;;;4.20;2.93;;;18.40;99.90;;;;;;5072742;28;20174;-74
2022/07/22 05:16:55;;;;;;;2.80;1.83;;;18.50;99.90;;;;;;5072901;28;20993;-74
2022/07/22 05:19:21;;;;;;;11.47;4.43;;;18.50;99.90;;;;;;5072925;28;20182;-74
2022/07/22 05:21:47;;;;;;;3.27;2.80;;;18.50;99.90;;;;;;5072904;28;20198;-74
2022/07/22 05:24:13;;;;;;;8.20;2.77;;;18.60;99.90;;;;;;5072706;28;20166;-74
2022/07/22 05:26:38;;;;;;;6.23;2.87;;;18.60;99.90;;;;;;5071588;28;20170;-74
2022/07/22 05:29:04;;;;;;;7.20;3.20;;;18.70;99.90;;;;;;5072691;28;20414;-74
2022/07/22 05:31:30;;;;;;;3.33;2.00;;;18.70;99.90;;;;;;5072849;28;20621;-75
2022/07/22 05:33:56;;;;;;;11.33;3.20;;;18.80;99.90;;;;;;5072286;28;20174;-74
2022/07/22 05:36:22;;;;;;;2.50;1.80;;;18.90;99.90;;;;;;5072502;28;20166;-74
2022/07/22 05:38:47;;;;;;;3.23;2.17;;;19.00;99.90;;;;;;5072537;28;20408;-74
2022/07/22 05:41:13;;;;;;;4.63;3.20;;;19.00;99.90;;;;;;5072205;28;20452;-74
2022/07/22 05:43:39;;;;;;;3.20;2.27;;;19.10;99.90;;;;;;5072495;28;20193;-74
2022/07/22 05:46:05;;;;;;;3.07;2.50;;;19.20;99.90;;;;;;5072313;28;20173;-77
2022/07/22 05:48:30;;;;;;;3.43;2.50;;;19.20;99.90;;;;;;5072536;28;20177;-74
2022/07/22 05:50:56;;;;;;;4.30;1.80;;;19.20;99.90;;;;;;5072395;28;20439;-75
2022/07/22 05:53:23;;;;;;;4.70;2.80;;;19.40;99.90;;;;;;5071081;28;20277;-74
2022/07/22 05:55:48;;;;;;;2.43;2.23;;;19.40;99.90;;;;;;5072088;28;20181;-75
2022/07/22 05:58:14;;;;;;;3.77;2.37;;;19.50;99.90;;;;;;5072357;28;20404;-74
2022/07/22 06:00:40;;;;;;;4.50;3.17;;;19.60;99.90;;;;;;5070961;28;20281;-74
2022/07/22 06:03:05;;;;;;;2.97;2.10;;;19.70;99.90;;;;;;5071017;28;20656;-74
2022/07/22 06:05:31;;;;;;;4.20;2.30;;;19.80;99.90;;;;;;5071999;28;20219;-75
2022/07/22 06:07:56;;;;;;;3.00;2.10;;;19.80;99.90;;;;;;5072225;28;20174;-74
2022/07/22 06:10:22;;;;;;;1.93;1.63;;;19.90;99.90;;;;;;5070953;28;20196;-74
2022/07/22 06:12:48;;;;;;;4.20;3.63;;;19.90;99.90;;;;;;5072235;28;20166;-74
2022/07/22 06:15:13;;;;;;;3.13;2.27;;;20.00;99.90;;;;;;5071814;28;20175;-74
2022/07/22 06:17:39;;;;;;;2.87;2.27;;;20.00;99.90;;;;;;5072223;28;20191;-74
2022/07/22 06:20:05;;;;;;;3.07;2.20;;;20.00;99.90;;;;;;5070980;28;20193;-75
2022/07/22 06:22:31;;;;;;;4.07;2.20;;;20.10;99.90;;;;;;5071998;28;20222;-75
2022/07/22 06:24:57;;;;;;;4.67;3.33;;;20.10;99.90;;;;;;5071704;28;20433;-74
2022/07/22 06:27:22;;;;;;;5.07;3.40;;;20.20;99.90;;;;;;5070820;28;20181;-74
2022/07/22 06:29:48;;;;;;;5.87;4.03;;;20.20;99.90;;;;;;5071945;28;20186;-74
2022/07/22 06:32:13;;;;;;;5.97;4.07;;;20.30;99.90;;;;;;5072054;28;20670;-74
2022/07/22 06:34:39;;;;;;;8.23;5.10;;;20.30;99.90;;;;;;5071383;28;20658;-74
2022/07/22 06:37:05;;;;;;;6.77;4.47;;;20.40;99.90;;;;;;5072104;28;20174;-74
2022/07/22 06:39:31;;;;;;;7.30;4.63;;;20.50;99.90;;;;;;5071906;28;20251;-74
2022/07/22 06:41:56;;;;;;;6.60;4.50;;;20.50;99.90;;;;;;5071800;28;20487;-74
2022/07/22 06:44:22;;;;;;;6.60;4.87;;;20.50;99.90;;;;;;5071775;28;20162;-74
2022/07/22 06:46:47;;;;;;;5.43;4.03;;;20.50;99.90;;;;;;5075008;28;20174;-75
2022/07/22 06:49:13;;;;;;;3.47;2.37;;;20.40;99.90;;;;;;5074731;28;20196;-74
2022/07/22 06:51:39;;;;;;;2.17;1.60;;;20.40;99.90;;;;;;5075797;28;20185;-74
2022/07/22 06:54:04;;;;;;;2.80;1.60;;;20.40;99.90;;;;;;5074286;28;20174;-74
2022/07/22 06:56:30;;;;;;;2.00;1.60;;;20.30;99.90;;;;;;5075433;28;20186;-74
2022/07/22 06:58:55;;;;;;;1.93;1.43;;;20.30;99.90;;;;;;5075753;28;20166;-74
2022/07/22 07:01:21;;;;;;;1.87;1.67;;;20.30;99.90;;;;;;5075814;28;20204;-74
2022/07/22 07:03:47;;;;;;;2.97;1.60;;;20.30;99.90;;;;;;5075665;28;20166;-74
2022/07/22 07:06:12;;;;;;;1.80;1.30;;;20.30;99.90;;;;;;5075021;28;20158;-74
2022/07/22 07:08:39;;;;;;;2.30;1.43;;;20.40;99.90;;;;;;5075387;28;20162;-74
2022/07/22 07:11:04;;;;;;;1.83;1.20;;;20.40;99.90;;;;;;5075224;28;20197;-74
2022/07/22 07:13:30;;;;;;;1.67;1.20;;;20.40;99.90;;;;;;5075137;28;20408;-74
2022/07/22 07:15:56;;;;;;;2.03;1.43;;;20.50;99.90;;;;;;5075040;28;20509;-74
2022/07/22 07:18:21;;;;;;;1.27;1.13;;;20.60;99.90;;;;;;5075112;28;20854;-74
2022/07/22 07:20:47;;;;;;;2.20;1.40;;;20.60;99.90;;;;;;5074989;28;20193;-74
2022/07/22 07:23:13;;;;;;;4.17;2.03;;;20.70;99.90;;;;;;5075295;28;20527;-74
2022/07/22 07:25:38;;;;;;;2.80;1.33;;;20.80;99.90;;;;;;5074884;28;20216;-74
2022/07/22 07:28:04;;;;;;;1.80;1.50;;;21.00;99.90;;;;;;5075085;28;20165;-74
2022/07/22 07:30:30;;;;;;;1.80;1.60;;;21.10;99.90;;;;;;5073512;28;20235;-74
2022/07/22 07:32:55;;;;;;;2.73;1.90;;;21.20;99.90;;;;;;5074777;28;20461;-74
2022/07/22 07:35:21;;;;;;;2.87;1.33;;;21.30;99.90;;;;;;5073387;28;20511;-74
2022/07/22 07:37:47;;;;;;;1.77;1.40;;;21.30;99.90;;;;;;5074927;28;20555;-74
2022/07/22 07:40:12;;;;;;;3.60;2.10;;;21.50;99.90;;;;;;5074684;28;20249;-74
2022/07/22 07:42:38;;;;;;;1.50;1.07;;;21.60;99.90;;;;;;5074638;28;20197;-74
2022/07/22 07:45:04;;;;;;;2.40;1.50;;;21.70;99.90;;;;;;5073074;28;20198;-74
2022/07/22 07:47:29;;;;;;;3.73;1.20;;;21.80;99.90;;;;;;5074587;28;20170;-75
2022/07/22 07:49:57;;;;;;;3.07;1.13;;;21.90;99.90;;;;;;5074349;28;20936;-74
2022/07/22 07:52:22;;;;;;;2.70;1.90;;;22.10;99.90;;;;;;5073010;28;20310;-74
2022/07/22 07:54:48;;;;;;;2.90;1.70;;;22.20;99.90;;;;;;5074110;28;20436;-74
2022/07/22 07:57:14;;;;;;;1.97;1.33;;;22.40;99.90;;;;;;5073968;28;20169;-74
2022/07/22 07:59:40;;;;;;;3.37;1.47;;;22.50;99.90;;;;;;5074253;28;20323;-74
2022/07/22 08:02:07;;;;;;;1.63;1.47;;;22.70;99.90;;;;;;5074190;28;20289;-74
2022/07/22 08:04:34;;;;;;;3.87;1.90;;;22.80;99.90;;;;;;5074033;28;20917;-73
2022/07/22 08:07:00;;;;;;;1.83;1.63;;;22.90;99.90;;;;;;5074178;28;20923;-74
2022/07/22 08:09:25;;;;;;;2.47;1.40;;;22.90;99.90;;;;;;5073996;28;20412;-75
2022/07/22 08:11:51;;;;;;;5.80;2.00;;;23.00;99.90;;;;;;5072451;28;20412;-73
2022/07/22 08:14:17;;;;;;;1.83;1.40;;;23.10;99.90;;;;;;5073542;28;20653;-74
2022/07/22 08:16:43;;;;;;;2.80;1.60;;;23.10;99.90;;;;;;5074004;28;20170;-74
2022/07/22 08:19:08;;;;;;;2.20;1.90;;;23.20;99.90;;;;;;5074241;28;20436;-76
2022/07/22 08:21:34;;;;;;;3.30;2.67;;;23.20;99.90;;;;;;5074460;28;20190;-75
2022/07/22 08:24:00;;;;;;;3.23;1.93;;;23.30;99.90;;;;;;5074903;28;20163;-76
2022/07/22 08:26:26;;;;;;;3.20;1.77;;;23.30;99.90;;;;;;5074538;28;20662;-76
2022/07/22 08:28:51;;;;;;;3.87;1.43;;;23.30;99.90;;;;;;5073171;28;20730;-75
2022/07/22 08:31:17;;;;;;;2.00;1.77;;;23.40;99.90;;;;;;5074478;28;20631;-75
2022/07/22 08:33:43;;;;;;;3.00;1.90;;;23.40;99.90;;;;;;5074844;28;20170;-76
2022/07/22 08:36:08;;;;;;;3.20;2.40;;;23.40;99.90;;;;;;5074100;28;20166;-75
2022/07/22 08:38:34;;;;;;;3.53;2.80;;;23.40;99.90;;;;;;5074690;28;20177;-77
2022/07/22 08:41:02;;;;;;;2.60;2.40;;;23.30;99.90;;;;;;5075177;28;20601;-76
2022/07/22 08:43:28;;;;;;;3.70;2.00;;;23.50;99.90;;;;;;5073986;28;20190;-74
2022/07/22 08:45:54;;;;;;;2.90;1.87;;;23.70;99.90;;;;;;5073218;28;20407;-74
2022/07/22 08:48:19;;;;;;;3.13;2.37;;;23.90;99.90;;;;;;5073377;28;20404;-75
2022/07/22 08:50:45;;;;;;;3.30;1.97;;;24.20;99.90;;;;;;5073642;28;20218;-76
2022/07/22 08:53:12;;;;;;;4.10;2.17;;;24.60;99.90;;;;;;5075064;28;20264;-76
2022/07/22 08:55:44;;;;;;;3.07;2.07;;;24.90;99.90;;;;;;5074310;28;20495;-75
2022/07/22 08:58:11;;;;;;;3.30;2.00;;;25.40;99.90;;;;;;5074980;28;20420;-76
2022/07/22 09:00:37;;;;;;;2.93;2.10;;;25.80;99.90;;;;;;5074659;28;20455;-75
2022/07/22 09:03:21;;;;;;;5.10;2.70;;;26.20;99.90;;;;;;5072965;28;20540;-74
2022/07/22 09:05:47;;;;;;;3.60;2.73;;;26.60;99.90;;;;;;5072736;28;20500;-75
2022/07/22 09:08:13;;;;;;;6.13;2.73;;;26.90;99.90;;;;;;5070897;28;20415;-74
2022/07/22 09:10:39;;;;;;;2.93;2.57;;;27.00;99.90;;;;;;5071627;28;20424;-75
2022/07/22 09:13:06;;;;;;;9.10;2.70;;;27.10;99.90;;;;;;5072884;28;20407;-75
2022/07/22 09:15:37;;;;;;;3.37;2.57;;;27.30;99.90;;;;;;5072921;28;20726;-75
2022/07/22 09:18:04;;;;;;;3.77;3.10;;;27.60;99.90;;;;;;5072840;28;20397;-75
2022/07/22 09:20:30;;;;;;;3.10;2.70;;;28.00;99.90;;;;;;5072517;28;20428;-75
2022/07/22 09:22:55;;;;;;;4.60;3.10;;;28.60;99.90;;;;;;5072578;28;20944;-75
2022/07/22 09:25:28;;;;;;;3.50;2.73;;;28.90;99.00;;;;;;5073131;28;20416;-75
2022/07/22 09:28:09;;;;;;;3.07;2.77;;;29.20;96.70;;;;;;5072588;28;20167;-75
2022/07/22 09:30:56;;;;;;;3.67;3.20;;;29.20;94.50;;;;;;5072443;28;20420;-74
2022/07/22 09:33:22;;;;;;;4.47;3.80;;;29.00;93.20;;;;;;5072485;28;20423;-74
2022/07/22 09:35:48;;;;;;;3.43;2.77;;;28.80;94.40;;;;;;5072176;28;20887;-75
2022/07/22 09:38:16;;;;;;;4.57;2.93;;;28.60;93.00;;;;;;5072487;28;20396;-75
2022/07/22 09:40:44;;;;;;;4.13;3.70;;;28.50;95.20;;;;;;5072306;28;20552;-75
2022/07/22 09:43:14;;;;;;;9.30;3.77;;;28.10;95.80;;;;;;5072352;28;20456;-75
2022/07/22 09:45:56;;;;;;;4.93;3.47;;;27.80;97.40;;;;;;5072051;28;20384;-75
2022/07/22 09:48:22;;;;;;;5.97;3.50;;;27.60;99.60;;;;;;5072278;28;20971;-74
2022/07/22 09:50:50;;;;;;;8.47;3.27;;;27.20;99.90;;;;;;5072120;28;20424;-75
2022/07/22 09:53:17;;;;;;;3.20;2.80;;;26.90;99.90;;;;;;5070817;28;20519;-75
2022/07/22 09:55:43;;;;;;;5.00;3.53;;;26.60;99.90;;;;;;5071883;28;20413;-74
2022/07/22 09:58:08;;;;;;;5.70;3.57;;;26.50;99.90;;;;;;5072550;28;20879;-74
2022/07/22 10:00:36;;;;;;;4.70;2.73;;;26.40;99.90;;;;;;5072095;28;20634;-75
2022/07/22 10:03:04;;;;;;;3.07;2.70;;;26.10;99.90;;;;;;5072014;28;20194;-74
2022/07/22 10:05:42;;;;;;;4.20;3.53;;;26.10;99.90;;;;;;5071675;28;20440;-74
2022/07/22 10:08:08;;;;;;;4.17;3.33;;;26.10;99.90;;;;;;5072053;28;20808;-75
2022/07/22 10:10:36;;;;;;;4.70;4.03;;;26.30;99.90;;;;;;5072362;28;20428;-77
2022/07/22 10:13:02;;;;;;;4.67;3.20;;;26.40;99.90;;;;;;5073529;28;20405;-76
2022/07/22 10:15:30;;;;;;;4.50;4.00;;;26.50;99.90;;;;;;5073098;28;20479;-76
2022/07/22 10:17:58;;;;;;;6.30;4.43;;;26.50;99.90;;;;;;5073055;28;20404;-75
2022/07/22 10:20:26;;;;;;;5.70;3.43;;;26.40;99.90;;;;;;5071608;28;20420;-75
2022/07/22 10:23:04;;;;;;;4.10;3.30;;;26.30;99.90;;;;;;5070350;28;20456;-74
2022/07/22 10:25:48;;;;;;;5.07;3.80;;;26.40;99.90;;;;;;5071474;28;20407;-75
2022/07/22 10:28:26;;;;;;;5.50;3.87;;;26.60;99.90;;;;;;5071703;28;20488;-75
2022/07/22 10:30:53;;;;;;;4.90;3.87;;;26.70;99.90;;;;;;5071595;28;20503;-75
2022/07/22 10:33:20;;;;;;;5.60;4.40;;;26.70;99.90;;;;;;5071520;28;20501;-75
2022/07/22 10:35:59;;;;;;;7.27;4.37;;;26.90;99.90;;;;;;5071313;28;20405;-75
2022/07/22 10:38:25;;;;;;;6.90;5.90;;;27.00;99.90;;;;;;5071568;28;20403;-75
2022/07/22 10:40:56;;;;;;;6.30;4.70;;;27.30;99.90;;;;;;5072330;28;20470;-76
2022/07/22 10:43:27;;;;;;;11.53;5.03;;;27.30;99.90;;;;;;5072449;28;20432;-74
2022/07/22 10:46:02;;;;;;;7.50;4.27;;;27.20;99.90;;;;;;5072339;28;20459;-75
2022/07/22 10:48:37;;;;;;;6.10;4.43;;;27.20;99.90;;;;;;5072708;28;20404;-75
2022/07/22 10:51:21;;;;;;;5.90;4.27;;;27.20;99.90;;;;;;5072738;28;20506;-76
2022/07/22 10:54:02;;;;;;;5.67;4.37;;;27.20;99.90;;;;;;5072355;28;20798;-76
2022/07/22 10:56:35;;;;;;;6.27;4.40;;;27.00;99.90;;;;;;5071171;28;20403;-76
2022/07/22 10:59:09;;;;;;;6.00;4.27;;;26.80;99.90;;;;;;5072836;28;20844;-76
2022/07/22 11:01:36;;;;;;;5.23;4.07;;;26.80;99.90;;;;;;5072533;28;20444;-75
2022/07/22 11:04:32;;;;;;;6.63;5.00;;;26.70;99.90;;;;;;5072131;28;20445;-75
2022/07/22 11:06:58;;;;;;;6.60;5.10;;;26.80;99.90;;;;;;5063125;28;20416;-75
2022/07/22 11:09:33;;;;;;;6.30;5.10;;;27.00;99.90;;;;;;5071710;28;20420;-76
2022/07/22 11:11:59;;;;;;;7.07;5.43;;;27.10;99.90;;;;;;5072691;28;20166;-75
2022/07/22 11:14:30;;;;;;;12.50;4.77;;;27.20;99.90;;;;;;5071379;28;20426;-75
2022/07/22 11:17:04;;;;;;;6.57;5.20;;;27.40;99.90;;;;;;5071587;28;20671;-74
2022/07/22 11:19:34;;;;;;;8.63;5.27;;;27.60;99.90;;;;;;5071451;28;20501;-74
2022/07/22 11:22:03;;;;;;;6.17;4.87;;;27.80;99.90;;;;;;5071488;28;20455;-75
2022/07/22 11:24:30;;;;;;;6.00;5.40;;;28.00;99.90;;;;;;5071245;28;20836;-75
2022/07/22 11:26:56;;;;;;;6.60;5.40;;;28.20;99.90;;;;;;5071514;28;20404;-75
2022/07/22 11:29:29;;;;;;;5.13;4.63;;;28.60;99.90;;;;;;5071242;28;20427;-75
2022/07/22 11:31:58;;;;;;;5.57;4.60;;;28.90;99.00;;;;;;5072701;28;20454;-75
2022/07/22 11:34:25;;;;;;;6.97;5.23;;;29.20;96.60;;;;;;5074141;28;20428;-75
2022/07/22 11:36:53;;;;;;;7.27;5.10;;;29.60;97.20;;;;;;5075075;28;20491;-75
2022/07/22 11:39:21;;;;;;;9.50;5.83;;;29.70;94.80;;;;;;5075077;28;20458;-74
2022/07/22 11:41:47;;;;;;;6.73;5.70;;;29.70;93.40;;;;;;5074897;28;20444;-74
2022/07/22 11:44:18;;;;;;;7.53;6.10;;;29.90;95.10;;;;;;5074647;28;20407;-75
2022/07/22 11:46:44;;;;;;;7.97;5.03;;;30.30;93.70;;;;;;5074761;28;20163;-75
2022/07/22 11:49:14;;;;;;;5.73;4.90;;;31.20;91.50;;;;;;5074768;28;20784;-75
2022/07/22 11:51:39;;;;;;;4.67;4.27;;;31.70;84.60;;;;;;5074858;28;20182;-75
2022/07/22 11:54:05;;;;;;;6.90;6.17;;;31.90;80.30;;;;;;5074789;28;20894;-75
2022/07/22 11:56:32;;;;;;;8.73;5.80;;;31.90;77.20;;;;;;5073225;28;20174;-75
2022/07/22 11:58:58;;;;;;;6.60;5.90;;;31.70;78.30;;;;;;5073536;28;20909;-75
2022/07/22 12:01:26;;;;;;;5.93;5.27;;;31.60;73.10;;;;;;5074449;28;21054;-75
2022/07/22 12:04:01;;;;;;;7.63;6.67;;;31.60;76.50;;;;;;5073680;28;20405;-77
2022/07/22 12:06:28;;;;;;;6.40;5.80;;;32.90;76.20;;;;;;5075280;28;20396;-76
2022/07/22 12:09:03;;;;;;;5.43;4.80;;;33.70;68.80;;;;;;5074372;28;20411;-75
2022/07/22 12:11:29;;;;;;;6.10;5.17;;;35.00;63.80;;;;;;5074364;28;20412;-75
2022/07/22 12:13:55;;;;;;;7.10;6.40;;;36.40;57.00;;;;;;5074244;28;20473;-75
2022/07/22 12:16:28;;;;;;;8.00;7.20;;;36.90;54.50;;;;;;5073668;28;20507;-74
2022/07/22 12:19:00;;;;;;;6.97;6.00;;;37.40;53.60;;;;;;5074193;28;20166;-73
2022/07/22 12:21:28;;;;;;;7.10;6.40;;;37.50;49.80;;;;;;5074113;28;20463;-75
2022/07/22 12:24:06;;;;;;;7.57;6.87;;;37.50;50.90;;;;;;5074141;28;20400;-76
2022/07/22 12:26:40;;;;;;;8.00;7.20;;;37.80;50.00;;;;;;5073877;28;20397;-76
2022/07/22 12:29:15;;;;;;;8.10;6.53;;;37.70;48.10;;;;;;5073982;28;20399;-75
2022/07/22 12:31:45;;;;;;;6.87;6.17;;;37.50;48.10;;;;;;5074080;28;20396;-75
2022/07/22 12:34:12;;;;;;;6.43;5.83;;;37.50;49.30;;;;;;5073822;28;20405;-76
2022/07/22 12:36:37;;;;;;;7.13;5.63;;;37.80;48.90;;;;;;5073763;28;20763;-75
2022/07/22 12:39:17;;;;;;;7.37;5.23;;;37.80;48.20;;;;;;5073898;28;20492;-76
2022/07/22 12:42:00;;;;;;;7.63;6.60;;;37.80;47.00;;;;;;5073809;28;20563;-75
2022/07/22 12:44:27;;;;;;;8.60;6.70;;;37.80;47.60;;;;;;5072474;28;20447;-76
2022/07/22 12:46:56;;;;;;;8.40;6.47;;;37.80;47.00;;;;;;5073666;28;20375;-76